sensor_id;sensor_type;location;lat;lon;timestamp;P1;durP1;ratioP1;P2;durP2;ratioP2
46288;SDS011;63105;46.158;14.604;2023-04-01T00:00:47;4.03;;;1.60;;
46288;SDS011;63105;46.158;14.604;2023-04-01T00:03:13;3.05;;;1.60;;
46288;SDS011;63105;46.158;14.604;2023-04-01T00:05:38;4.30;;;1.50;;
46288;SDS011;63105;46.158;14.604;2023-04-01T00:08:03;2.78;;;1.50;;
46288;SDS011;63105;46.158;14.604;2023-04-01T00:10:28;3.47;;;1.70;;
46288;SDS011;63105;46.158;14.604;2023-04-01T00:12:54;3.90;;;1.48;;
46288;SDS011;63105;46.158;14.604;2023-04-01T00:15:19;3.38;;;1.70;;
46288;SDS011;63105;46.158;14.604;2023-04-01T00:17:44;3.25;;;1.40;;
46288;SDS011;63105;46.158;14.604;2023-04-01T00:20:10;3.08;;;1.60;;
46288;SDS011;63105;46.158;14.604;2023-04-01T00:22:35;3.63;;;1.50;;
46288;SDS011;63105;46.158;14.604;2023-04-01T00:25:01;3.25;;;1.58;;
46288;SDS011;63105;46.158;14.604;2023-04-01T00:27:26;3.38;;;1.60;;
46288;SDS011;63105;46.158;14.604;2023-04-01T00:29:51;3.00;;;1.40;;
46288;SDS011;63105;46.158;14.604;2023-04-01T00:32:16;3.13;;;1.48;;
46288;SDS011;63105;46.158;14.604;2023-04-01T00:34:42;3.40;;;1.50;;
46288;SDS011;63105;46.158;14.604;2023-04-01T00:37:09;2.88;;;1.40;;
46288;SDS011;63105;46.158;14.604;2023-04-01T00:39:34;2.95;;;1.45;;
46288;SDS011;63105;46.158;14.604;2023-04-01T00:42:00;2.85;;;1.42;;
46288;SDS011;63105;46.158;14.604;2023-04-01T00:44:27;3.33;;;1.80;;
46288;SDS011;63105;46.158;14.604;2023-04-01T00:46:52;3.75;;;2.00;;
46288;SDS011;63105;46.158;14.604;2023-04-01T00:49:18;3.80;;;2.40;;
46288;SDS011;63105;46.158;14.604;2023-04-01T00:51:45;4.15;;;2.22;;
46288;SDS011;63105;46.158;14.604;2023-04-01T00:54:11;3.20;;;1.70;;
46288;SDS011;63105;46.158;14.604;2023-04-01T00:56:37;3.20;;;1.75;;
46288;SDS011;63105;46.158;14.604;2023-04-01T00:59:12;3.30;;;1.75;;
46288;SDS011;63105;46.158;14.604;2023-04-01T01:01:38;3.63;;;1.70;;
46288;SDS011;63105;46.158;14.604;2023-04-01T01:04:03;3.08;;;1.38;;
46288;SDS011;63105;46.158;14.604;2023-04-01T01:09:03;3.65;;;1.77;;
46288;SDS011;63105;46.158;14.604;2023-04-01T01:11:52;3.80;;;1.80;;
46288;SDS011;63105;46.158;14.604;2023-04-01T01:16:49;3.15;;;1.70;;
46288;SDS011;63105;46.158;14.604;2023-04-01T01:22:10;3.63;;;1.67;;
46288;SDS011;63105;46.158;14.604;2023-04-01T01:25:32;2.70;;;1.30;;
46288;SDS011;63105;46.158;14.604;2023-04-01T01:27:26;4.22;;;1.50;;
46288;SDS011;63105;46.158;14.604;2023-04-01T01:37:38;2.03;;;1.10;;
46288;SDS011;63105;46.158;14.604;2023-04-01T01:40:06;3.00;;;1.40;;
46288;SDS011;63105;46.158;14.604;2023-04-01T01:42:32;2.42;;;1.15;;
46288;SDS011;63105;46.158;14.604;2023-04-01T01:44:58;2.72;;;1.30;;
46288;SDS011;63105;46.158;14.604;2023-04-01T01:47:25;2.78;;;1.45;;
46288;SDS011;63105;46.158;14.604;2023-04-01T01:49:51;2.35;;;1.13;;
46288;SDS011;63105;46.158;14.604;2023-04-01T01:52:17;2.78;;;1.17;;
46288;SDS011;63105;46.158;14.604;2023-04-01T01:54:53;2.92;;;1.27;;
46288;SDS011;63105;46.158;14.604;2023-04-01T01:57:19;2.67;;;1.13;;
46288;SDS011;63105;46.158;14.604;2023-04-01T01:59:45;2.38;;;1.00;;
46288;SDS011;63105;46.158;14.604;2023-04-01T02:02:11;2.60;;;0.95;;
46288;SDS011;63105;46.158;14.604;2023-04-01T02:04:38;2.90;;;1.08;;
46288;SDS011;63105;46.158;14.604;2023-04-01T02:07:07;2.20;;;1.08;;
46288;SDS011;63105;46.158;14.604;2023-04-01T02:09:33;2.08;;;0.90;;
46288;SDS011;63105;46.158;14.604;2023-04-01T02:12:00;2.20;;;0.95;;
46288;SDS011;63105;46.158;14.604;2023-04-01T02:14:35;1.90;;;0.90;;
46288;SDS011;63105;46.158;14.604;2023-04-01T02:17:07;1.83;;;1.00;;
46288;SDS011;63105;46.158;14.604;2023-04-01T02:19:36;1.80;;;0.90;;
46288;SDS011;63105;46.158;14.604;2023-04-01T02:22:03;1.73;;;0.82;;
46288;SDS011;63105;46.158;14.604;2023-04-01T02:24:30;2.40;;;0.95;;
46288;SDS011;63105;46.158;14.604;2023-04-01T02:26:55;2.08;;;0.90;;
46288;SDS011;63105;46.158;14.604;2023-04-01T02:29:21;2.63;;;1.00;;
46288;SDS011;63105;46.158;14.604;2023-04-01T02:31:47;1.65;;;0.80;;
46288;SDS011;63105;46.158;14.604;2023-04-01T02:34:14;2.08;;;0.90;;
46288;SDS011;63105;46.158;14.604;2023-04-01T02:36:39;1.73;;;0.80;;
46288;SDS011;63105;46.158;14.604;2023-04-01T02:39:05;2.53;;;1.10;;
46288;SDS011;63105;46.158;14.604;2023-04-01T02:41:31;2.67;;;1.00;;
46288;SDS011;63105;46.158;14.604;2023-04-01T02:43:57;2.28;;;1.00;;
46288;SDS011;63105;46.158;14.604;2023-04-01T02:46:23;1.48;;;0.80;;
46288;SDS011;63105;46.158;14.604;2023-04-01T02:48:49;2.70;;;1.00;;
46288;SDS011;63105;46.158;14.604;2023-04-01T02:51:14;3.30;;;1.08;;
46288;SDS011;63105;46.158;14.604;2023-04-01T02:53:39;2.13;;;0.90;;
46288;SDS011;63105;46.158;14.604;2023-04-01T02:56:04;2.80;;;1.42;;
46288;SDS011;63105;46.158;14.604;2023-04-01T02:58:30;3.05;;;1.67;;
46288;SDS011;63105;46.158;14.604;2023-04-01T03:00:55;3.58;;;1.75;;
46288;SDS011;63105;46.158;14.604;2023-04-01T03:03:20;3.30;;;1.50;;
46288;SDS011;63105;46.158;14.604;2023-04-01T03:05:45;2.60;;;1.10;;
46288;SDS011;63105;46.158;14.604;2023-04-01T03:08:11;2.03;;;1.10;;
46288;SDS011;63105;46.158;14.604;2023-04-01T03:10:36;2.35;;;1.10;;
46288;SDS011;63105;46.158;14.604;2023-04-01T03:13:02;1.95;;;1.00;;
46288;SDS011;63105;46.158;14.604;2023-04-01T03:15:27;2.28;;;1.10;;
46288;SDS011;63105;46.158;14.604;2023-04-01T03:17:52;2.10;;;1.10;;
46288;SDS011;63105;46.158;14.604;2023-04-01T03:20:17;3.05;;;1.20;;
46288;SDS011;63105;46.158;14.604;2023-04-01T03:22:43;2.08;;;1.00;;
46288;SDS011;63105;46.158;14.604;2023-04-01T03:25:08;2.45;;;1.00;;
46288;SDS011;63105;46.158;14.604;2023-04-01T03:27:34;2.83;;;1.30;;
46288;SDS011;63105;46.158;14.604;2023-04-01T03:30:01;2.97;;;1.27;;
46288;SDS011;63105;46.158;14.604;2023-04-01T03:32:26;2.35;;;1.30;;
46288;SDS011;63105;46.158;14.604;2023-04-01T03:34:52;3.00;;;1.38;;
46288;SDS011;63105;46.158;14.604;2023-04-01T03:37:17;2.55;;;1.25;;
46288;SDS011;63105;46.158;14.604;2023-04-01T03:39:42;3.00;;;1.30;;
46288;SDS011;63105;46.158;14.604;2023-04-01T03:42:08;1.88;;;1.10;;
46288;SDS011;63105;46.158;14.604;2023-04-01T03:44:33;2.58;;;1.23;;
46288;SDS011;63105;46.158;14.604;2023-04-01T03:46:58;2.70;;;1.13;;
46288;SDS011;63105;46.158;14.604;2023-04-01T03:49:24;1.95;;;1.02;;
46288;SDS011;63105;46.158;14.604;2023-04-01T03:51:49;3.38;;;1.40;;
46288;SDS011;63105;46.158;14.604;2023-04-01T03:54:14;3.25;;;1.70;;
46288;SDS011;63105;46.158;14.604;2023-04-01T03:56:40;3.60;;;1.70;;
46288;SDS011;63105;46.158;14.604;2023-04-01T03:59:06;2.95;;;1.60;;
46288;SDS011;63105;46.158;14.604;2023-04-01T04:01:32;2.88;;;1.50;;
46288;SDS011;63105;46.158;14.604;2023-04-01T04:03:57;3.20;;;1.70;;
46288;SDS011;63105;46.158;14.604;2023-04-01T04:06:23;3.30;;;1.70;;
46288;SDS011;63105;46.158;14.604;2023-04-01T04:08:49;3.85;;;1.90;;
46288;SDS011;63105;46.158;14.604;2023-04-01T04:11:15;2.95;;;1.60;;
46288;SDS011;63105;46.158;14.604;2023-04-01T04:13:40;3.17;;;1.88;;
46288;SDS011;63105;46.158;14.604;2023-04-01T04:16:06;3.28;;;1.90;;
46288;SDS011;63105;46.158;14.604;2023-04-01T04:18:32;3.65;;;2.13;;
46288;SDS011;63105;46.158;14.604;2023-04-01T04:20:57;3.83;;;2.00;;
46288;SDS011;63105;46.158;14.604;2023-04-01T04:23:22;3.40;;;2.15;;
46288;SDS011;63105;46.158;14.604;2023-04-01T04:25:57;3.70;;;2.20;;
46288;SDS011;63105;46.158;14.604;2023-04-01T04:28:23;4.32;;;2.20;;
46288;SDS011;63105;46.158;14.604;2023-04-01T04:30:48;4.40;;;2.60;;
46288;SDS011;63105;46.158;14.604;2023-04-01T04:33:14;4.20;;;2.63;;
46288;SDS011;63105;46.158;14.604;2023-04-01T04:35:39;6.63;;;3.83;;
46288;SDS011;63105;46.158;14.604;2023-04-01T04:38:04;5.65;;;3.97;;
46288;SDS011;63105;46.158;14.604;2023-04-01T04:40:30;4.93;;;3.10;;
46288;SDS011;63105;46.158;14.604;2023-04-01T04:42:55;5.85;;;3.33;;
46288;SDS011;63105;46.158;14.604;2023-04-01T04:45:20;5.75;;;3.67;;
46288;SDS011;63105;46.158;14.604;2023-04-01T04:47:45;6.20;;;3.63;;
46288;SDS011;63105;46.158;14.604;2023-04-01T04:50:11;6.38;;;3.70;;
46288;SDS011;63105;46.158;14.604;2023-04-01T04:52:36;5.25;;;3.45;;
46288;SDS011;63105;46.158;14.604;2023-04-01T04:55:02;6.88;;;4.20;;
46288;SDS011;63105;46.158;14.604;2023-04-01T04:57:27;5.93;;;3.78;;
46288;SDS011;63105;46.158;14.604;2023-04-01T04:59:52;6.60;;;4.20;;
46288;SDS011;63105;46.158;14.604;2023-04-01T05:02:17;6.35;;;4.50;;
46288;SDS011;63105;46.158;14.604;2023-04-01T05:04:43;5.88;;;3.90;;
46288;SDS011;63105;46.158;14.604;2023-04-01T05:07:08;7.22;;;5.03;;
46288;SDS011;63105;46.158;14.604;2023-04-01T05:09:33;7.05;;;4.57;;
46288;SDS011;63105;46.158;14.604;2023-04-01T05:11:58;6.80;;;4.35;;
46288;SDS011;63105;46.158;14.604;2023-04-01T05:14:24;5.78;;;3.80;;
46288;SDS011;63105;46.158;14.604;2023-04-01T05:16:49;7.28;;;4.43;;
46288;SDS011;63105;46.158;14.604;2023-04-01T05:19:15;5.82;;;4.28;;
46288;SDS011;63105;46.158;14.604;2023-04-01T05:21:40;6.20;;;4.30;;
46288;SDS011;63105;46.158;14.604;2023-04-01T05:24:08;6.30;;;3.90;;
46288;SDS011;63105;46.158;14.604;2023-04-01T05:26:34;6.28;;;3.97;;
46288;SDS011;63105;46.158;14.604;2023-04-01T05:28:59;5.55;;;3.80;;
46288;SDS011;63105;46.158;14.604;2023-04-01T05:31:25;6.25;;;3.90;;
46288;SDS011;63105;46.158;14.604;2023-04-01T05:33:50;5.65;;;3.85;;
46288;SDS011;63105;46.158;14.604;2023-04-01T05:36:16;5.88;;;4.13;;
46288;SDS011;63105;46.158;14.604;2023-04-01T05:38:41;5.93;;;4.00;;
46288;SDS011;63105;46.158;14.604;2023-04-01T05:41:07;6.32;;;4.32;;
46288;SDS011;63105;46.158;14.604;2023-04-01T05:43:35;6.50;;;4.15;;
46288;SDS011;63105;46.158;14.604;2023-04-01T05:46:00;7.25;;;4.95;;
46288;SDS011;63105;46.158;14.604;2023-04-01T05:48:25;7.85;;;5.22;;
46288;SDS011;63105;46.158;14.604;2023-04-01T05:50:51;7.63;;;4.70;;
46288;SDS011;63105;46.158;14.604;2023-04-01T05:53:16;9.45;;;6.10;;
46288;SDS011;63105;46.158;14.604;2023-04-01T05:55:41;8.38;;;5.35;;
46288;SDS011;63105;46.158;14.604;2023-04-01T05:58:06;8.07;;;5.70;;
46288;SDS011;63105;46.158;14.604;2023-04-01T06:00:32;7.60;;;5.22;;
46288;SDS011;63105;46.158;14.604;2023-04-01T06:03:00;7.38;;;4.70;;
46288;SDS011;63105;46.158;14.604;2023-04-01T06:05:29;6.75;;;4.80;;
46288;SDS011;63105;46.158;14.604;2023-04-01T06:07:57;6.82;;;4.70;;
46288;SDS011;63105;46.158;14.604;2023-04-01T06:10:23;6.65;;;4.38;;
46288;SDS011;63105;46.158;14.604;2023-04-01T06:35:56;6.22;;;4.60;;
46288;SDS011;63105;46.158;14.604;2023-04-01T06:43:33;7.53;;;4.85;;
46288;SDS011;63105;46.158;14.604;2023-04-01T06:54:20;6.75;;;4.75;;
46288;SDS011;63105;46.158;14.604;2023-04-01T06:56:20;7.53;;;4.75;;
46288;SDS011;63105;46.158;14.604;2023-04-01T06:58:53;7.68;;;4.97;;
46288;SDS011;63105;46.158;14.604;2023-04-01T07:01:40;6.85;;;4.60;;
46288;SDS011;63105;46.158;14.604;2023-04-01T07:04:10;6.97;;;4.82;;
46288;SDS011;63105;46.158;14.604;2023-04-01T07:06:46;6.72;;;4.90;;
46288;SDS011;63105;46.158;14.604;2023-04-01T07:09:12;6.28;;;4.00;;
46288;SDS011;63105;46.158;14.604;2023-04-01T07:11:39;6.78;;;4.68;;
46288;SDS011;63105;46.158;14.604;2023-04-01T07:16:51;5.40;;;3.72;;
46288;SDS011;63105;46.158;14.604;2023-04-01T07:22:32;6.25;;;4.40;;
46288;SDS011;63105;46.158;14.604;2023-04-01T07:24:39;5.43;;;3.90;;
46288;SDS011;63105;46.158;14.604;2023-04-01T07:27:08;6.68;;;4.03;;
46288;SDS011;63105;46.158;14.604;2023-04-01T07:29:34;6.28;;;4.82;;
46288;SDS011;63105;46.158;14.604;2023-04-01T07:34:35;6.03;;;4.20;;
46288;SDS011;63105;46.158;14.604;2023-04-01T07:37:07;5.63;;;4.13;;
46288;SDS011;63105;46.158;14.604;2023-04-01T07:49:43;4.88;;;3.10;;
46288;SDS011;63105;46.158;14.604;2023-04-01T07:52:13;6.68;;;3.90;;
46288;SDS011;63105;46.158;14.604;2023-04-01T07:55:00;6.00;;;3.88;;
46288;SDS011;63105;46.158;14.604;2023-04-01T07:57:33;4.25;;;2.80;;
46288;SDS011;63105;46.158;14.604;2023-04-01T08:02:44;4.72;;;3.20;;
46288;SDS011;63105;46.158;14.604;2023-04-01T08:07:45;4.10;;;2.40;;
46288;SDS011;63105;46.158;14.604;2023-04-01T08:15:52;7.05;;;4.53;;
46288;SDS011;63105;46.158;14.604;2023-04-01T08:20:42;4.72;;;3.33;;
46288;SDS011;63105;46.158;14.604;2023-04-01T08:23:18;6.28;;;4.40;;
46288;SDS011;63105;46.158;14.604;2023-04-01T08:31:09;4.88;;;3.35;;
46288;SDS011;63105;46.158;14.604;2023-04-01T08:33:36;4.70;;;3.20;;
46288;SDS011;63105;46.158;14.604;2023-04-01T08:59:57;5.45;;;3.45;;
46288;SDS011;63105;46.158;14.604;2023-04-01T09:11:12;5.40;;;3.28;;
46288;SDS011;63105;46.158;14.604;2023-04-01T09:23:40;5.30;;;3.13;;
46288;SDS011;63105;46.158;14.604;2023-04-01T09:26:18;4.57;;;2.97;;
46288;SDS011;63105;46.158;14.604;2023-04-01T09:39:24;4.00;;;2.50;;
46288;SDS011;63105;46.158;14.604;2023-04-01T09:44:22;5.40;;;3.22;;
46288;SDS011;63105;46.158;14.604;2023-04-01T09:52:07;3.85;;;2.30;;
46288;SDS011;63105;46.158;14.604;2023-04-01T10:10:43;3.70;;;2.40;;
46288;SDS011;63105;46.158;14.604;2023-04-01T10:15:57;4.05;;;2.42;;
46288;SDS011;63105;46.158;14.604;2023-04-01T10:21:25;4.22;;;2.30;;
46288;SDS011;63105;46.158;14.604;2023-04-01T10:29:29;4.55;;;2.50;;
46288;SDS011;63105;46.158;14.604;2023-04-01T10:34:52;4.10;;;2.15;;
46288;SDS011;63105;46.158;14.604;2023-04-01T10:42:33;4.95;;;2.70;;
46288;SDS011;63105;46.158;14.604;2023-04-01T10:50:34;3.90;;;1.97;;
46288;SDS011;63105;46.158;14.604;2023-04-01T11:00:58;4.85;;;1.73;;
46288;SDS011;63105;46.158;14.604;2023-04-01T11:06:11;2.72;;;1.50;;
46288;SDS011;63105;46.158;14.604;2023-04-01T11:19:14;3.03;;;1.60;;
46288;SDS011;63105;46.158;14.604;2023-04-01T11:26:47;3.20;;;1.38;;
46288;SDS011;63105;46.158;14.604;2023-04-01T11:32:24;2.88;;;1.10;;
46288;SDS011;63105;46.158;14.604;2023-04-01T11:42:32;3.72;;;1.60;;
46288;SDS011;63105;46.158;14.604;2023-04-01T11:52:58;3.15;;;1.60;;
46288;SDS011;63105;46.158;14.604;2023-04-01T12:05:29;3.97;;;1.70;;
46288;SDS011;63105;46.158;14.604;2023-04-01T12:13:35;3.40;;;1.60;;
46288;SDS011;63105;46.158;14.604;2023-04-01T12:16:08;2.83;;;1.33;;
46288;SDS011;63105;46.158;14.604;2023-04-01T12:18:38;3.28;;;1.33;;
46288;SDS011;63105;46.158;14.604;2023-04-01T12:37:26;2.35;;;0.93;;
46288;SDS011;63105;46.158;14.604;2023-04-01T12:50:34;2.28;;;0.90;;
46288;SDS011;63105;46.158;14.604;2023-04-01T13:06:15;2.25;;;1.00;;
46288;SDS011;63105;46.158;14.604;2023-04-01T13:23:53;2.75;;;1.00;;
46288;SDS011;63105;46.158;14.604;2023-04-01T13:29:28;2.25;;;1.08;;
46288;SDS011;63105;46.158;14.604;2023-04-01T13:44:54;2.70;;;0.90;;
46288;SDS011;63105;46.158;14.604;2023-04-01T14:03:03;2.83;;;1.10;;
46288;SDS011;63105;46.158;14.604;2023-04-01T14:19:11;3.28;;;1.48;;
46288;SDS011;63105;46.158;14.604;2023-04-01T14:21:43;3.92;;;1.90;;
46288;SDS011;63105;46.158;14.604;2023-04-01T14:24:20;4.57;;;1.40;;
46288;SDS011;63105;46.158;14.604;2023-04-01T14:50:05;4.55;;;2.35;;
46288;SDS011;63105;46.158;14.604;2023-04-01T14:52:31;3.15;;;1.40;;
46288;SDS011;63105;46.158;14.604;2023-04-01T14:54:59;3.47;;;1.38;;
46288;SDS011;63105;46.158;14.604;2023-04-01T14:57:27;3.90;;;1.70;;
46288;SDS011;63105;46.158;14.604;2023-04-01T14:59:54;4.03;;;1.88;;
46288;SDS011;63105;46.158;14.604;2023-04-01T15:18:07;3.63;;;1.53;;
46288;SDS011;63105;46.158;14.604;2023-04-01T15:41:38;4.07;;;2.03;;
46288;SDS011;63105;46.158;14.604;2023-04-01T15:44:24;3.95;;;1.88;;
46288;SDS011;63105;46.158;14.604;2023-04-01T15:46:50;4.90;;;2.70;;
46288;SDS011;63105;46.158;14.604;2023-04-01T15:49:23;4.95;;;2.60;;
46288;SDS011;63105;46.158;14.604;2023-04-01T15:51:58;4.20;;;2.15;;
46288;SDS011;63105;46.158;14.604;2023-04-01T16:01:59;4.03;;;2.25;;
46288;SDS011;63105;46.158;14.604;2023-04-01T16:04:42;5.05;;;2.22;;
46288;SDS011;63105;46.158;14.604;2023-04-01T16:19:49;6.13;;;2.38;;
46288;SDS011;63105;46.158;14.604;2023-04-01T16:22:20;4.53;;;2.50;;
46288;SDS011;63105;46.158;14.604;2023-04-01T16:27:41;4.82;;;2.33;;
46288;SDS011;63105;46.158;14.604;2023-04-01T16:32:54;4.35;;;2.40;;
46288;SDS011;63105;46.158;14.604;2023-04-01T16:35:28;3.67;;;1.92;;
46288;SDS011;63105;46.158;14.604;2023-04-01T16:45:52;5.53;;;2.13;;
46288;SDS011;63105;46.158;14.604;2023-04-01T16:48:36;4.20;;;2.30;;
46288;SDS011;63105;46.158;14.604;2023-04-01T16:51:14;5.47;;;2.40;;
46288;SDS011;63105;46.158;14.604;2023-04-01T16:53:41;5.13;;;2.55;;
46288;SDS011;63105;46.158;14.604;2023-04-01T16:56:29;4.47;;;2.28;;
46288;SDS011;63105;46.158;14.604;2023-04-01T16:59:10;5.30;;;2.58;;
46288;SDS011;63105;46.158;14.604;2023-04-01T17:01:47;5.20;;;2.78;;
46288;SDS011;63105;46.158;14.604;2023-04-01T17:22:21;4.88;;;2.70;;
46288;SDS011;63105;46.158;14.604;2023-04-01T17:25:34;4.82;;;2.67;;
46288;SDS011;63105;46.158;14.604;2023-04-01T17:32:55;5.05;;;2.17;;
46288;SDS011;63105;46.158;14.604;2023-04-01T17:58:18;5.30;;;2.13;;
46288;SDS011;63105;46.158;14.604;2023-04-01T18:06:03;5.18;;;2.20;;
46288;SDS011;63105;46.158;14.604;2023-04-01T18:24:00;8.13;;;3.23;;
46288;SDS011;63105;46.158;14.604;2023-04-01T18:26:29;5.00;;;2.85;;
46288;SDS011;63105;46.158;14.604;2023-04-01T18:28:57;5.22;;;3.00;;
46288;SDS011;63105;46.158;14.604;2023-04-01T18:31:24;6.05;;;3.33;;
46288;SDS011;63105;46.158;14.604;2023-04-01T18:38:52;5.97;;;3.60;;
46288;SDS011;63105;46.158;14.604;2023-04-01T18:51:49;7.43;;;3.95;;
46288;SDS011;63105;46.158;14.604;2023-04-01T18:56:48;9.43;;;5.10;;
46288;SDS011;63105;46.158;14.604;2023-04-01T19:06:41;7.22;;;4.28;;
46288;SDS011;63105;46.158;14.604;2023-04-01T19:09:19;7.18;;;4.30;;
46288;SDS011;63105;46.158;14.604;2023-04-01T19:14:24;6.97;;;4.45;;
46288;SDS011;63105;46.158;14.604;2023-04-01T19:45:51;8.45;;;5.20;;
46288;SDS011;63105;46.158;14.604;2023-04-01T19:56:02;7.85;;;5.30;;
46288;SDS011;63105;46.158;14.604;2023-04-01T20:00:57;9.27;;;5.43;;
46288;SDS011;63105;46.158;14.604;2023-04-01T20:03:25;9.90;;;6.50;;
46288;SDS011;63105;46.158;14.604;2023-04-01T20:16:17;10.85;;;6.57;;
46288;SDS011;63105;46.158;14.604;2023-04-01T20:18:56;10.95;;;7.25;;
46288;SDS011;63105;46.158;14.604;2023-04-01T20:21:33;9.75;;;7.05;;
46288;SDS011;63105;46.158;14.604;2023-04-01T20:32:40;9.57;;;6.30;;
46288;SDS011;63105;46.158;14.604;2023-04-01T20:35:19;9.60;;;6.15;;
46288;SDS011;63105;46.158;14.604;2023-04-01T20:40:32;9.15;;;6.35;;
46288;SDS011;63105;46.158;14.604;2023-04-01T20:55:58;8.32;;;5.32;;
46288;SDS011;63105;46.158;14.604;2023-04-01T21:03:57;9.38;;;5.97;;
46288;SDS011;63105;46.158;14.604;2023-04-01T21:22:47;8.13;;;4.82;;
46288;SDS011;63105;46.158;14.604;2023-04-01T21:24:53;7.95;;;5.15;;
46288;SDS011;63105;46.158;14.604;2023-04-01T21:27:34;8.82;;;5.43;;
46288;SDS011;63105;46.158;14.604;2023-04-01T21:30:27;8.63;;;5.00;;
46288;SDS011;63105;46.158;14.604;2023-04-01T21:35:29;8.55;;;5.28;;
46288;SDS011;63105;46.158;14.604;2023-04-01T21:50:42;8.55;;;5.47;;
46288;SDS011;63105;46.158;14.604;2023-04-01T21:58:30;8.48;;;5.22;;
46288;SDS011;63105;46.158;14.604;2023-04-01T22:06:21;8.73;;;5.38;;
46288;SDS011;63105;46.158;14.604;2023-04-01T22:08:54;9.13;;;5.63;;
46288;SDS011;63105;46.158;14.604;2023-04-01T22:11:26;8.90;;;4.85;;
46288;SDS011;63105;46.158;14.604;2023-04-01T22:14:14;7.90;;;5.13;;
46288;SDS011;63105;46.158;14.604;2023-04-01T22:21:45;7.55;;;4.80;;
46288;SDS011;63105;46.158;14.604;2023-04-01T22:32:20;6.28;;;4.13;;
46288;SDS011;63105;46.158;14.604;2023-04-01T22:37:40;7.95;;;4.40;;
46288;SDS011;63105;46.158;14.604;2023-04-01T22:40:23;7.38;;;3.90;;
46288;SDS011;63105;46.158;14.604;2023-04-01T22:52:45;6.70;;;3.85;;
46288;SDS011;63105;46.158;14.604;2023-04-01T22:55:25;7.35;;;3.50;;
46288;SDS011;63105;46.158;14.604;2023-04-01T22:58:05;5.97;;;3.50;;
46288;SDS011;63105;46.158;14.604;2023-04-01T23:03:11;6.30;;;3.22;;
46288;SDS011;63105;46.158;14.604;2023-04-01T23:05:57;5.18;;;3.20;;
46288;SDS011;63105;46.158;14.604;2023-04-01T23:10:58;5.28;;;3.17;;
46288;SDS011;63105;46.158;14.604;2023-04-01T23:16:17;9.45;;;3.63;;
46288;SDS011;63105;46.158;14.604;2023-04-01T23:18:47;5.45;;;3.20;;
46288;SDS011;63105;46.158;14.604;2023-04-01T23:21:18;6.78;;;3.10;;
46288;SDS011;63105;46.158;14.604;2023-04-01T23:23:51;6.32;;;3.05;;
46288;SDS011;63105;46.158;14.604;2023-04-01T23:26:23;5.65;;;3.08;;
46288;SDS011;63105;46.158;14.604;2023-04-01T23:28:50;4.75;;;2.90;;
46288;SDS011;63105;46.158;14.604;2023-04-01T23:31:36;5.50;;;3.17;;
46288;SDS011;63105;46.158;14.604;2023-04-01T23:36:45;6.13;;;3.15;;
46288;SDS011;63105;46.158;14.604;2023-04-01T23:39:32;5.45;;;3.17;;
46288;SDS011;63105;46.158;14.604;2023-04-01T23:41:59;6.60;;;3.28;;
46288;SDS011;63105;46.158;14.604;2023-04-01T23:44:25;7.20;;;3.50;;
46288;SDS011;63105;46.158;14.604;2023-04-01T23:46:51;6.22;;;3.70;;
46288;SDS011;63105;46.158;14.604;2023-04-01T23:49:28;6.30;;;3.53;;
46288;SDS011;63105;46.158;14.604;2023-04-01T23:51:58;6.85;;;3.60;;
46288;SDS011;63105;46.158;14.604;2023-04-01T23:54:28;6.50;;;3.97;;
46288;SDS011;63105;46.158;14.604;2023-04-01T23:56:55;8.27;;;4.40;;
